sensor_id;sensor_type;location;lat;lon;timestamp;pressure;altitude;pressure_sealevel;temperature;humidity
71195;BME280;58908;51.426;7.714;2022-09-27T00:00:11;97670.16;;;9.52;100.00
71195;BME280;58908;51.426;7.714;2022-09-27T00:02:36;97671.25;;;9.49;100.00
71195;BME280;58908;51.426;7.714;2022-09-27T00:05:01;97673.63;;;9.52;100.00
71195;BME280;58908;51.426;7.714;2022-09-27T00:07:27;97668.63;;;9.49;100.00
71195;BME280;58908;51.426;7.714;2022-09-27T00:09:52;97682.63;;;9.50;100.00
71195;BME280;58908;51.426;7.714;2022-09-27T00:12:17;97673.88;;;9.49;100.00
71195;BME280;58908;51.426;7.714;2022-09-27T00:14:42;97686.09;;;9.50;100.00
71195;BME280;58908;51.426;7.714;2022-09-27T00:17:08;97687.03;;;9.49;100.00
71195;BME280;58908;51.426;7.714;2022-09-27T00:19:33;97694.13;;;9.49;100.00
71195;BME280;58908;51.426;7.714;2022-09-27T00:21:58;97701.91;;;9.50;100.00
71195;BME280;58908;51.426;7.714;2022-09-27T00:24:25;97695.91;;;9.48;100.00
71195;BME280;58908;51.426;7.714;2022-09-27T00:26:50;97691.59;;;9.47;100.00
71195;BME280;58908;51.426;7.714;2022-09-27T00:29:16;97697.13;;;9.44;100.00
71195;BME280;58908;51.426;7.714;2022-09-27T00:31:42;97703.09;;;9.46;100.00
71195;BME280;58908;51.426;7.714;2022-09-27T00:34:09;97704.34;;;9.43;100.00
71195;BME280;58908;51.426;7.714;2022-09-27T00:36:36;97704.34;;;9.43;100.00
71195;BME280;58908;51.426;7.714;2022-09-27T00:39:01;97707.09;;;9.41;100.00
71195;BME280;58908;51.426;7.714;2022-09-27T00:41:30;97701.00;;;9.41;100.00
71195;BME280;58908;51.426;7.714;2022-09-27T00:43:57;97701.50;;;9.35;100.00
71195;BME280;58908;51.426;7.714;2022-09-27T00:46:25;97706.78;;;9.35;100.00
71195;BME280;58908;51.426;7.714;2022-09-27T00:48:57;97710.38;;;9.34;100.00
71195;BME280;58908;51.426;7.714;2022-09-27T00:51:23;97715.91;;;9.31;100.00
71195;BME280;58908;51.426;7.714;2022-09-27T00:53:49;97710.91;;;9.28;100.00
71195;BME280;58908;51.426;7.714;2022-09-27T00:56:17;97720.47;;;9.29;100.00
71195;BME280;58908;51.426;7.714;2022-09-27T00:58:45;97714.63;;;9.25;100.00
71195;BME280;58908;51.426;7.714;2022-09-27T01:01:12;97718.31;;;9.23;100.00
71195;BME280;58908;51.426;7.714;2022-09-27T01:03:44;97714.31;;;9.19;100.00
71195;BME280;58908;51.426;7.714;2022-09-27T01:06:11;97718.72;;;9.18;100.00
71195;BME280;58908;51.426;7.714;2022-09-27T01:08:36;97726.88;;;9.15;100.00
71195;BME280;58908;51.426;7.714;2022-09-27T01:13:49;97743.16;;;9.09;100.00
71195;BME280;58908;51.426;7.714;2022-09-27T01:16:42;97734.56;;;9.07;100.00
71195;BME280;58908;51.426;7.714;2022-09-27T01:21:58;97747.38;;;9.01;100.00
71195;BME280;58908;51.426;7.714;2022-09-27T01:24:28;97742.81;;;9.03;100.00
71195;BME280;58908;51.426;7.714;2022-09-27T01:27:12;97744.63;;;9.02;100.00
71195;BME280;58908;51.426;7.714;2022-09-27T01:32:15;97743.78;;;9.02;100.00
71195;BME280;58908;51.426;7.714;2022-09-27T01:34:46;97744.75;;;9.01;100.00
71195;BME280;58908;51.426;7.714;2022-09-27T01:37:24;97750.72;;;9.03;100.00
71195;BME280;58908;51.426;7.714;2022-09-27T01:40:01;97749.75;;;9.04;100.00
71195;BME280;58908;51.426;7.714;2022-09-27T01:45:02;97743.19;;;8.98;100.00
71195;BME280;58908;51.426;7.714;2022-09-27T01:47:30;97756.34;;;8.98;100.00
71195;BME280;58908;51.426;7.714;2022-09-27T01:50:18;97751.94;;;8.99;100.00
71195;BME280;58908;51.426;7.714;2022-09-27T01:52:48;97747.31;;;8.91;100.00
71195;BME280;58908;51.426;7.714;2022-09-27T01:55:14;97751.88;;;8.89;100.00
71195;BME280;58908;51.426;7.714;2022-09-27T01:57:42;97756.38;;;8.87;100.00
71195;BME280;58908;51.426;7.714;2022-09-27T02:00:10;97751.28;;;8.86;100.00
71195;BME280;58908;51.426;7.714;2022-09-27T02:02:37;97756.00;;;8.92;100.00
71195;BME280;58908;51.426;7.714;2022-09-27T02:05:05;97752.69;;;8.90;100.00
71195;BME280;58908;51.426;7.714;2022-09-27T02:07:34;97758.78;;;8.90;100.00
71195;BME280;58908;51.426;7.714;2022-09-27T02:10:03;97759.88;;;8.88;100.00
71195;BME280;58908;51.426;7.714;2022-09-27T02:12:34;97755.69;;;8.85;100.00
71195;BME280;58908;51.426;7.714;2022-09-27T02:15:04;97759.28;;;8.84;100.00
71195;BME280;58908;51.426;7.714;2022-09-27T02:20:18;97761.78;;;8.86;100.00
71195;BME280;58908;51.426;7.714;2022-09-27T02:27:59;97768.84;;;8.85;100.00
71195;BME280;58908;51.426;7.714;2022-09-27T02:30:29;97764.66;;;8.83;100.00
71195;BME280;58908;51.426;7.714;2022-09-27T02:32:54;97768.84;;;8.85;100.00
71195;BME280;58908;51.426;7.714;2022-09-27T02:35:26;97772.41;;;8.84;100.00
71195;BME280;58908;51.426;7.714;2022-09-27T02:37:53;97765.00;;;8.89;100.00
71195;BME280;58908;51.426;7.714;2022-09-27T02:40:19;97773.97;;;8.87;100.00
71195;BME280;58908;51.426;7.714;2022-09-27T02:42:44;97774.94;;;8.86;100.00
71195;BME280;58908;51.426;7.714;2022-09-27T02:45:10;97773.97;;;8.87;100.00
71195;BME280;58908;51.426;7.714;2022-09-27T02:50:30;97777.69;;;8.84;100.00
71195;BME280;58908;51.426;7.714;2022-09-27T02:55:37;97774.22;;;8.84;100.00
71195;BME280;58908;51.426;7.714;2022-09-27T03:00:41;97783.06;;;8.83;100.00
71195;BME280;58908;51.426;7.714;2022-09-27T03:03:13;97783.06;;;8.83;100.00
71195;BME280;58908;51.426;7.714;2022-09-27T03:05:50;97776.28;;;8.80;100.00
71195;BME280;58908;51.426;7.714;2022-09-27T03:08:17;97778.19;;;8.78;100.00
71195;BME280;58908;51.426;7.714;2022-09-27T03:10:43;97779.72;;;8.81;100.00
71195;BME280;58908;51.426;7.714;2022-09-27T03:13:09;97781.63;;;8.79;100.00
71195;BME280;58908;51.426;7.714;2022-09-27T03:15:34;97778.19;;;8.78;100.00
71195;BME280;58908;51.426;7.714;2022-09-27T03:17:59;97784.16;;;8.80;100.00
71195;BME280;58908;51.426;7.714;2022-09-27T03:20:24;97780.81;;;8.78;100.00
71195;BME280;58908;51.426;7.714;2022-09-27T03:22:49;97782.00;;;8.74;100.00
71195;BME280;58908;51.426;7.714;2022-09-27T03:25:15;97786.19;;;8.77;100.00
71195;BME280;58908;51.426;7.714;2022-09-27T03:27:40;97784.53;;;8.76;100.00
71195;BME280;58908;51.426;7.714;2022-09-27T03:30:05;97789.91;;;8.74;100.00
71195;BME280;58908;51.426;7.714;2022-09-27T03:32:31;97794.91;;;8.77;100.00
71195;BME280;58908;51.426;7.714;2022-09-27T03:34:56;97798.63;;;8.75;100.00
71195;BME280;58908;51.426;7.714;2022-09-27T03:37:21;97802.22;;;8.74;100.00
71195;BME280;58908;51.426;7.714;2022-09-27T03:39:47;97796.22;;;8.72;100.00
71195;BME280;58908;51.426;7.714;2022-09-27T03:42:12;97802.59;;;8.69;100.00
71195;BME280;58908;51.426;7.714;2022-09-27T03:44:37;97799.25;;;8.67;100.00
71195;BME280;58908;51.426;7.714;2022-09-27T03:47:02;97810.59;;;8.68;100.00
71195;BME280;58908;51.426;7.714;2022-09-27T03:49:27;97805.22;;;8.69;100.00
71195;BME280;58908;51.426;7.714;2022-09-27T03:51:53;97801.75;;;8.69;100.00
71195;BME280;58908;51.426;7.714;2022-09-27T03:54:18;97798.41;;;8.67;100.00
71195;BME280;58908;51.426;7.714;2022-09-27T03:56:43;97805.59;;;8.65;100.00
71195;BME280;58908;51.426;7.714;2022-09-27T03:59:08;97807.63;;;8.61;100.00
71195;BME280;58908;51.426;7.714;2022-09-27T04:01:34;97809.53;;;8.59;100.00
71195;BME280;58908;51.426;7.714;2022-09-27T04:04:01;97805.94;;;8.60;100.00
71195;BME280;58908;51.426;7.714;2022-09-27T04:06:26;97819.19;;;8.59;100.00
71195;BME280;58908;51.426;7.714;2022-09-27T04:08:52;97811.31;;;8.59;100.00
71195;BME280;58908;51.426;7.714;2022-09-27T04:11:18;97812.97;;;8.60;100.00
71195;BME280;58908;51.426;7.714;2022-09-27T04:13:43;97810.25;;;8.61;100.00
71195;BME280;58908;51.426;7.714;2022-09-27T04:16:08;97814.53;;;8.62;100.00
71195;BME280;58908;51.426;7.714;2022-09-27T04:18:33;97806.66;;;8.62;100.00
71195;BME280;58908;51.426;7.714;2022-09-27T04:20:59;97820.31;;;8.56;100.00
71195;BME280;58908;51.426;7.714;2022-09-27T04:23:24;97818.75;;;8.54;100.00
71195;BME280;58908;51.426;7.714;2022-09-27T04:25:49;97823.16;;;8.53;100.00
71195;BME280;58908;51.426;7.714;2022-09-27T04:28:14;97828.66;;;8.50;100.00
71195;BME280;58908;51.426;7.714;2022-09-27T04:30:40;97823.75;;;8.46;100.00
71195;BME280;58908;51.426;7.714;2022-09-27T04:33:05;97829.38;;;8.41;100.00
71195;BME280;58908;51.426;7.714;2022-09-27T04:35:30;97833.31;;;8.36;100.00
71195;BME280;58908;51.426;7.714;2022-09-27T04:38:14;97837.50;;;8.38;100.00
71195;BME280;58908;51.426;7.714;2022-09-27T04:40:39;97841.81;;;8.39;100.00
71195;BME280;58908;51.426;7.714;2022-09-27T04:43:05;97844.31;;;8.41;100.00
71195;BME280;58908;51.426;7.714;2022-09-27T04:45:31;97844.31;;;8.41;100.00
71195;BME280;58908;51.426;7.714;2022-09-27T04:47:56;97852.06;;;8.42;100.00
71195;BME280;58908;51.426;7.714;2022-09-27T04:50:21;97853.03;;;8.41;100.00
71195;BME280;58908;51.426;7.714;2022-09-27T04:52:50;97852.31;;;8.39;100.00
71195;BME280;58908;51.426;7.714;2022-09-27T04:55:16;97850.75;;;8.37;100.00
71195;BME280;58908;51.426;7.714;2022-09-27T04:57:41;97852.06;;;8.31;100.00
71195;BME280;58908;51.426;7.714;2022-09-27T05:00:06;97850.75;;;8.26;100.00
71195;BME280;58908;51.426;7.714;2022-09-27T05:02:32;97863.19;;;8.24;100.00
71195;BME280;58908;51.426;7.714;2022-09-27T05:04:57;97863.88;;;8.26;100.00
71195;BME280;58908;51.426;7.714;2022-09-27T05:07:23;97873.69;;;8.24;100.00
71195;BME280;58908;51.426;7.714;2022-09-27T05:09:48;97870.34;;;8.22;100.00
71195;BME280;58908;51.426;7.714;2022-09-27T05:12:13;97876.66;;;8.19;100.00
71195;BME280;58908;51.426;7.714;2022-09-27T05:14:38;97868.69;;;8.21;100.00
71195;BME280;58908;51.426;7.714;2022-09-27T05:17:04;97877.03;;;8.26;100.00
71195;BME280;58908;51.426;7.714;2022-09-27T05:19:31;97879.44;;;8.29;100.00
71195;BME280;58908;51.426;7.714;2022-09-27T05:21:56;97878.59;;;8.28;100.00
71195;BME280;58908;51.426;7.714;2022-09-27T05:24:23;97885.25;;;8.32;100.00
71195;BME280;58908;51.426;7.714;2022-09-27T05:26:48;97886.81;;;8.35;100.00
71195;BME280;58908;51.426;7.714;2022-09-27T05:29:13;97891.13;;;8.36;100.00
71195;BME280;58908;51.426;7.714;2022-09-27T05:31:38;97888.50;;;8.36;100.00
71195;BME280;58908;51.426;7.714;2022-09-27T05:34:04;97892.78;;;8.37;100.00
71195;BME280;58908;51.426;7.714;2022-09-27T05:36:33;97891.97;;;8.36;100.00
71195;BME280;58908;51.426;7.714;2022-09-27T05:38:58;97891.72;;;8.39;100.00
71195;BME280;58908;51.426;7.714;2022-09-27T05:41:23;97891.63;;;8.41;100.00
71195;BME280;58908;51.426;7.714;2022-09-27T05:43:49;97900.31;;;8.41;100.00
71195;BME280;58908;51.426;7.714;2022-09-27T05:46:14;97895.31;;;8.38;100.00
71195;BME280;58908;51.426;7.714;2022-09-27T05:48:39;97901.50;;;8.37;100.00
71195;BME280;58908;51.426;7.714;2022-09-27T05:51:04;97904.03;;;8.39;100.00
71195;BME280;58908;51.426;7.714;2022-09-27T05:53:30;97904.59;;;8.42;100.00
71195;BME280;58908;51.426;7.714;2022-09-27T05:55:59;97911.66;;;8.42;100.00
71195;BME280;58908;51.426;7.714;2022-09-27T05:58:24;97910.81;;;8.41;100.00
71195;BME280;58908;51.426;7.714;2022-09-27T06:00:51;97911.53;;;8.43;100.00
71195;BME280;58908;51.426;7.714;2022-09-27T06:03:16;97919.19;;;8.46;100.00
71195;BME280;58908;51.426;7.714;2022-09-27T06:05:41;97913.81;;;8.48;100.00
71195;BME280;58908;51.426;7.714;2022-09-27T06:08:08;97911.91;;;8.50;100.00
71195;BME280;58908;51.426;7.714;2022-09-27T06:10:34;97918.94;;;8.49;100.00
71195;BME280;58908;51.426;7.714;2022-09-27T06:13:00;97913.94;;;8.46;100.00
71195;BME280;58908;51.426;7.714;2022-09-27T06:15:26;97919.91;;;8.48;100.00
71195;BME280;58908;51.426;7.714;2022-09-27T06:17:51;97923.50;;;8.58;100.00
71195;BME280;58908;51.426;7.714;2022-09-27T06:20:17;97925.75;;;8.63;100.00
71195;BME280;58908;51.426;7.714;2022-09-27T06:22:42;97922.53;;;8.70;100.00
71195;BME280;58908;51.426;7.714;2022-09-27T06:25:07;97919.41;;;8.65;100.00
71195;BME280;58908;51.426;7.714;2022-09-27T06:27:33;97932.91;;;8.61;100.00
71195;BME280;58908;51.426;7.714;2022-09-27T06:29:58;97930.53;;;8.58;100.00
71195;BME280;58908;51.426;7.714;2022-09-27T06:32:24;97928.84;;;8.57;100.00
71195;BME280;58908;51.426;7.714;2022-09-27T06:34:49;97934.13;;;8.57;100.00
71195;BME280;58908;51.426;7.714;2022-09-27T06:37:14;97932.44;;;8.67;100.00
71195;BME280;58908;51.426;7.714;2022-09-27T06:39:39;97932.78;;;8.73;100.00
71195;BME280;58908;51.426;7.714;2022-09-27T06:42:05;97930.66;;;8.89;100.00
71195;BME280;58908;51.426;7.714;2022-09-27T06:44:31;97931.91;;;9.17;100.00
71195;BME280;58908;51.426;7.714;2022-09-27T06:46:56;97931.31;;;9.76;100.00
71195;BME280;58908;51.426;7.714;2022-09-27T06:49:21;97929.97;;;9.61;100.00
71195;BME280;58908;51.426;7.714;2022-09-27T06:51:47;97935.56;;;9.88;100.00
71195;BME280;58908;51.426;7.714;2022-09-27T06:54:12;97938.22;;;10.49;100.00
71195;BME280;58908;51.426;7.714;2022-09-27T06:56:37;97938.00;;;10.11;100.00
71195;BME280;58908;51.426;7.714;2022-09-27T06:59:02;97930.09;;;10.11;100.00
71195;BME280;58908;51.426;7.714;2022-09-27T07:01:46;97929.25;;;10.31;100.00
71195;BME280;58908;51.426;7.714;2022-09-27T07:04:11;97940.38;;;10.14;100.00
71195;BME280;58908;51.426;7.714;2022-09-27T07:06:37;97940.31;;;10.05;100.00
71195;BME280;58908;51.426;7.714;2022-09-27T07:09:02;97951.25;;;9.89;100.00
71195;BME280;58908;51.426;7.714;2022-09-27T07:11:28;97950.22;;;9.81;100.00
71195;BME280;58908;51.426;7.714;2022-09-27T07:13:53;97954.19;;;9.75;100.00
71195;BME280;58908;51.426;7.714;2022-09-27T07:16:20;97960.75;;;10.01;100.00
71195;BME280;58908;51.426;7.714;2022-09-27T07:18:46;97965.56;;;10.07;100.00
71195;BME280;58908;51.426;7.714;2022-09-27T07:21:12;97968.59;;;10.03;100.00
71195;BME280;58908;51.426;7.714;2022-09-27T07:23:37;97969.28;;;10.05;100.00
71195;BME280;58908;51.426;7.714;2022-09-27T07:26:03;97969.94;;;9.86;100.00
71195;BME280;58908;51.426;7.714;2022-09-27T07:28:29;97976.75;;;9.57;100.00
71195;BME280;58908;51.426;7.714;2022-09-27T07:30:54;97979.06;;;9.40;100.00
71195;BME280;58908;51.426;7.714;2022-09-27T07:33:20;97991.66;;;9.26;100.00
71195;BME280;58908;51.426;7.714;2022-09-27T07:35:45;97997.78;;;9.15;100.00
71195;BME280;58908;51.426;7.714;2022-09-27T07:38:11;97998.16;;;9.00;100.00
71195;BME280;58908;51.426;7.714;2022-09-27T07:40:40;98000.19;;;8.96;100.00
71195;BME280;58908;51.426;7.714;2022-09-27T07:43:05;98011.41;;;8.98;100.00
71195;BME280;58908;51.426;7.714;2022-09-27T07:45:32;98009.75;;;8.97;100.00
71195;BME280;58908;51.426;7.714;2022-09-27T07:47:57;98016.09;;;8.95;100.00
71195;BME280;58908;51.426;7.714;2022-09-27T07:50:23;98009.72;;;9.08;100.00
71195;BME280;58908;51.426;7.714;2022-09-27T07:52:48;98028.63;;;8.91;100.00
71195;BME280;58908;51.426;7.714;2022-09-27T07:55:15;98020.75;;;8.80;100.00
71195;BME280;58908;51.426;7.714;2022-09-27T07:57:41;98027.69;;;8.92;100.00
71195;BME280;58908;51.426;7.714;2022-09-27T08:00:07;98031.13;;;8.93;100.00
71195;BME280;58908;51.426;7.714;2022-09-27T08:02:33;98033.66;;;8.94;100.00
71195;BME280;58908;51.426;7.714;2022-09-27T08:04:58;98028.03;;;8.88;100.00
71195;BME280;58908;51.426;7.714;2022-09-27T08:07:24;98032.31;;;8.78;100.00
71195;BME280;58908;51.426;7.714;2022-09-27T08:09:49;98038.91;;;8.83;100.00
71195;BME280;58908;51.426;7.714;2022-09-27T08:12:14;98036.03;;;8.86;100.00
71195;BME280;58908;51.426;7.714;2022-09-27T08:14:40;98035.31;;;8.95;100.00
71195;BME280;58908;51.426;7.714;2022-09-27T08:17:05;98038.91;;;8.94;100.00
71195;BME280;58908;51.426;7.714;2022-09-27T08:19:30;98036.63;;;8.90;100.00
71195;BME280;58908;51.426;7.714;2022-09-27T08:21:55;98041.91;;;8.90;100.00
71195;BME280;58908;51.426;7.714;2022-09-27T08:24:20;98041.66;;;9.04;100.00
71195;BME280;58908;51.426;7.714;2022-09-27T08:26:45;98036.88;;;8.98;100.00
71195;BME280;58908;51.426;7.714;2022-09-27T08:29:11;98046.09;;;9.03;100.00
71195;BME280;58908;51.426;7.714;2022-09-27T08:31:36;98051.09;;;9.06;100.00
71195;BME280;58908;51.426;7.714;2022-09-27T08:34:02;98056.25;;;9.08;100.00
71195;BME280;58908;51.426;7.714;2022-09-27T08:36:27;98048.13;;;9.00;100.00
71195;BME280;58908;51.426;7.714;2022-09-27T08:38:54;98054.94;;;8.91;100.00
71195;BME280;58908;51.426;7.714;2022-09-27T08:41:25;98050.03;;;8.98;100.00
71195;BME280;58908;51.426;7.714;2022-09-27T08:46:57;98053.00;;;9.37;100.00
71195;BME280;58908;51.426;7.714;2022-09-27T08:49:30;98050.81;;;9.53;100.00
71195;BME280;58908;51.426;7.714;2022-09-27T08:51:56;98056.81;;;9.44;100.00
71195;BME280;58908;51.426;7.714;2022-09-27T08:54:23;98055.13;;;9.43;100.00
71195;BME280;58908;51.426;7.714;2022-09-27T08:56:49;98065.22;;;9.27;100.00
71195;BME280;58908;51.426;7.714;2022-09-27T08:59:18;98066.16;;;9.37;100.00
71195;BME280;58908;51.426;7.714;2022-09-27T09:01:47;98070.81;;;9.34;100.00
71195;BME280;58908;51.426;7.714;2022-09-27T09:04:14;98067.72;;;9.29;100.00
71195;BME280;58908;51.426;7.714;2022-09-27T09:07:01;98073.69;;;9.31;100.00
71195;BME280;58908;51.426;7.714;2022-09-27T09:09:35;98075.81;;;9.47;100.00
71195;BME280;58908;51.426;7.714;2022-09-27T09:14:51;98070.81;;;9.44;100.00
71195;BME280;58908;51.426;7.714;2022-09-27T09:17:40;98071.66;;;9.56;100.00
71195;BME280;58908;51.426;7.714;2022-09-27T09:22:44;98074.28;;;9.45;100.00
71195;BME280;58908;51.426;7.714;2022-09-27T09:27:42;98071.50;;;10.42;100.00
71195;BME280;58908;51.426;7.714;2022-09-27T09:30:17;98074.78;;;10.35;100.00
71195;BME280;58908;51.426;7.714;2022-09-27T09:35:37;98059.47;;;11.50;94.29
71195;BME280;58908;51.426;7.714;2022-09-27T09:38:05;98055.31;;;11.27;94.08
71195;BME280;58908;51.426;7.714;2022-09-27T09:40:39;98049.84;;;12.07;91.37
71195;BME280;58908;51.426;7.714;2022-09-27T09:43:11;98062.66;;;12.02;91.74
71195;BME280;58908;51.426;7.714;2022-09-27T09:45:39;98066.00;;;12.42;91.50
71195;BME280;58908;51.426;7.714;2022-09-27T09:50:46;98056.53;;;11.83;89.32
71195;BME280;58908;51.426;7.714;2022-09-27T09:53:16;98064.13;;;11.37;90.88
71195;BME280;58908;51.426;7.714;2022-09-27T09:55:45;98051.78;;;10.78;92.41
71195;BME280;58908;51.426;7.714;2022-09-27T09:58:19;98057.13;;;10.67;94.89
71195;BME280;58908;51.426;7.714;2022-09-27T10:00:46;98055.03;;;10.70;93.05
71195;BME280;58908;51.426;7.714;2022-09-27T10:03:11;98055.09;;;10.59;96.39
71195;BME280;58908;51.426;7.714;2022-09-27T10:05:37;98049.56;;;10.42;94.59
71195;BME280;58908;51.426;7.714;2022-09-27T10:08:03;98047.56;;;10.55;97.20
71195;BME280;58908;51.426;7.714;2022-09-27T10:10:31;98041.59;;;10.53;94.83
71195;BME280;58908;51.426;7.714;2022-09-27T10:12:56;98044.88;;;10.45;95.20
71195;BME280;58908;51.426;7.714;2022-09-27T10:15:22;98037.69;;;10.47;96.25
71195;BME280;58908;51.426;7.714;2022-09-27T10:17:49;98047.72;;;10.53;95.76
71195;BME280;58908;51.426;7.714;2022-09-27T10:20:32;98046.50;;;10.37;94.94
71195;BME280;58908;51.426;7.714;2022-09-27T10:23:03;98042.09;;;10.26;94.32
71195;BME280;58908;51.426;7.714;2022-09-27T10:31:12;98056.28;;;10.14;93.63
71195;BME280;58908;51.426;7.714;2022-09-27T10:36:29;98040.25;;;10.17;96.29
71195;BME280;58908;51.426;7.714;2022-09-27T10:38:56;98048.66;;;10.11;96.38
71195;BME280;58908;51.426;7.714;2022-09-27T10:43:50;98046.38;;;10.59;93.68
71195;BME280;58908;51.426;7.714;2022-09-27T10:46:25;98041.72;;;10.72;92.01
71195;BME280;58908;51.426;7.714;2022-09-27T10:51:52;98038.91;;;10.43;93.09
71195;BME280;58908;51.426;7.714;2022-09-27T10:54:22;98047.47;;;10.36;93.55
71195;BME280;58908;51.426;7.714;2022-09-27T10:57:01;98045.03;;;10.12;93.96
71195;BME280;58908;51.426;7.714;2022-09-27T10:59:33;98044.19;;;10.23;92.63
71195;BME280;58908;51.426;7.714;2022-09-27T11:02:00;98044.19;;;10.43;94.40
71195;BME280;58908;51.426;7.714;2022-09-27T11:04:32;98036.66;;;10.59;90.91
71195;BME280;58908;51.426;7.714;2022-09-27T11:07:17;98040.63;;;11.04;92.35
71195;BME280;58908;51.426;7.714;2022-09-27T11:09:48;98037.13;;;11.24;91.89
71195;BME280;58908;51.426;7.714;2022-09-27T11:12:14;98038.84;;;11.05;90.62
71195;BME280;58908;51.426;7.714;2022-09-27T11:14:40;98031.94;;;10.83;89.88
71195;BME280;58908;51.426;7.714;2022-09-27T11:32:13;98033.16;;;10.79;90.16
71195;BME280;58908;51.426;7.714;2022-09-27T11:37:28;98031.34;;;11.10;89.61
71195;BME280;58908;51.426;7.714;2022-09-27T11:45:16;98021.94;;;11.17;87.75
71195;BME280;58908;51.426;7.714;2022-09-27T11:47:55;98013.56;;;11.42;87.21
71195;BME280;58908;51.426;7.714;2022-09-27T11:50:42;98008.97;;;11.44;84.70
71195;BME280;58908;51.426;7.714;2022-09-27T11:58:09;98007.53;;;11.70;85.80
71195;BME280;58908;51.426;7.714;2022-09-27T12:03:24;98009.06;;;11.63;85.42
71195;BME280;58908;51.426;7.714;2022-09-27T12:06:02;98004.34;;;11.66;85.81
71195;BME280;58908;51.426;7.714;2022-09-27T12:08:35;97990.47;;;11.83;82.01
71195;BME280;58908;51.426;7.714;2022-09-27T12:11:13;98007.44;;;12.09;81.07
71195;BME280;58908;51.426;7.714;2022-09-27T12:13:47;97999.66;;;12.17;81.66
71195;BME280;58908;51.426;7.714;2022-09-27T12:16:14;97996.16;;;11.88;81.02
71195;BME280;58908;51.426;7.714;2022-09-27T12:18:40;97990.19;;;11.86;82.41
71195;BME280;58908;51.426;7.714;2022-09-27T12:21:06;97989.88;;;11.70;79.99
71195;BME280;58908;51.426;7.714;2022-09-27T12:26:03;97996.34;;;11.47;84.61
71195;BME280;58908;51.426;7.714;2022-09-27T12:30:58;97998.66;;;11.71;82.75
71195;BME280;58908;51.426;7.714;2022-09-27T12:33:44;98006.00;;;11.67;82.76
71195;BME280;58908;51.426;7.714;2022-09-27T12:36:15;98005.47;;;11.83;82.84
71195;BME280;58908;51.426;7.714;2022-09-27T12:38:45;98002.41;;;11.96;82.21
71195;BME280;58908;51.426;7.714;2022-09-27T12:41:12;97999.38;;;11.92;81.28
71195;BME280;58908;51.426;7.714;2022-09-27T12:43:42;98001.47;;;12.07;81.04
71195;BME280;58908;51.426;7.714;2022-09-27T12:48:58;97999.09;;;11.85;78.60
71195;BME280;58908;51.426;7.714;2022-09-27T12:51:31;97988.38;;;11.68;77.93
71195;BME280;58908;51.426;7.714;2022-09-27T12:59:21;97994.78;;;11.84;78.31
71195;BME280;58908;51.426;7.714;2022-09-27T13:09:36;97992.13;;;11.26;81.71
71195;BME280;58908;51.426;7.714;2022-09-27T13:12:11;97993.91;;;11.16;79.71
71195;BME280;58908;51.426;7.714;2022-09-27T13:14:43;97990.81;;;11.11;83.86
71195;BME280;58908;51.426;7.714;2022-09-27T13:19:54;97989.72;;;11.13;83.07
71195;BME280;58908;51.426;7.714;2022-09-27T13:24:51;97989.50;;;11.35;81.67
71195;BME280;58908;51.426;7.714;2022-09-27T13:29:48;97998.22;;;11.26;82.11
71195;BME280;58908;51.426;7.714;2022-09-27T13:32:15;97992.34;;;11.13;82.76
71195;BME280;58908;51.426;7.714;2022-09-27T13:34:44;98002.34;;;11.10;83.27
71195;BME280;58908;51.426;7.714;2022-09-27T13:42:39;98005.91;;;10.99;85.14
71195;BME280;58908;51.426;7.714;2022-09-27T13:45:21;98002.97;;;10.93;87.71
71195;BME280;58908;51.426;7.714;2022-09-27T13:47:48;98017.56;;;10.67;89.88
71195;BME280;58908;51.426;7.714;2022-09-27T13:53:04;98031.59;;;9.84;95.38
71195;BME280;58908;51.426;7.714;2022-09-27T13:55:47;98034.41;;;9.60;99.34
71195;BME280;58908;51.426;7.714;2022-09-27T13:58:19;98037.13;;;9.28;100.00
71195;BME280;58908;51.426;7.714;2022-09-27T14:00:51;98040.13;;;9.23;100.00
71195;BME280;58908;51.426;7.714;2022-09-27T14:03:31;98034.00;;;9.23;100.00
71195;BME280;58908;51.426;7.714;2022-09-27T14:06:00;98037.50;;;9.12;100.00
71195;BME280;58908;51.426;7.714;2022-09-27T14:10:52;98041.19;;;8.88;100.00
71195;BME280;58908;51.426;7.714;2022-09-27T14:13:18;98037.25;;;8.93;100.00
71195;BME280;58908;51.426;7.714;2022-09-27T14:15:44;98044.63;;;8.88;100.00
71195;BME280;58908;51.426;7.714;2022-09-27T14:18:10;98041.19;;;9.21;100.00
71195;BME280;58908;51.426;7.714;2022-09-27T14:20:39;98031.78;;;9.49;100.00
71195;BME280;58908;51.426;7.714;2022-09-27T14:23:11;98037.63;;;9.64;100.00
71195;BME280;58908;51.426;7.714;2022-09-27T14:25:38;98029.81;;;9.84;100.00
71195;BME280;58908;51.426;7.714;2022-09-27T14:28:16;98027.13;;;9.95;100.00
71195;BME280;58908;51.426;7.714;2022-09-27T14:30:42;98028.66;;;9.98;100.00
71195;BME280;58908;51.426;7.714;2022-09-27T14:33:24;98024.94;;;10.11;100.00
71195;BME280;58908;51.426;7.714;2022-09-27T14:35:51;98027.66;;;9.78;100.00
71195;BME280;58908;51.426;7.714;2022-09-27T14:38:35;98026.41;;;9.62;100.00
71195;BME280;58908;51.426;7.714;2022-09-27T14:41:01;98035.13;;;9.62;100.00
71195;BME280;58908;51.426;7.714;2022-09-27T14:43:26;98037.44;;;9.56;100.00
71195;BME280;58908;51.426;7.714;2022-09-27T14:45:56;98041.00;;;9.44;100.00
71195;BME280;58908;51.426;7.714;2022-09-27T14:48:32;98042.94;;;9.42;100.00
71195;BME280;58908;51.426;7.714;2022-09-27T14:51:02;98042.81;;;9.43;100.00
71195;BME280;58908;51.426;7.714;2022-09-27T14:53:33;98045.44;;;9.54;100.00
71195;BME280;58908;51.426;7.714;2022-09-27T14:55:59;98042.22;;;9.51;100.00
71195;BME280;58908;51.426;7.714;2022-09-27T14:58:25;98050.19;;;9.60;100.00
71195;BME280;58908;51.426;7.714;2022-09-27T15:00:51;98048.19;;;9.53;100.00
71195;BME280;58908;51.426;7.714;2022-09-27T15:03:21;98047.56;;;9.60;100.00
71195;BME280;58908;51.426;7.714;2022-09-27T15:05:49;98051.72;;;9.74;100.00
71195;BME280;58908;51.426;7.714;2022-09-27T15:08:14;98049.34;;;9.71;100.00
71195;BME280;58908;51.426;7.714;2022-09-27T15:10:40;98042.66;;;9.67;100.00